Relevés horaires La Dôle (Suisse)


Relevés horaires à La Dôle - Dimanche 06 Janv. 2008
Heure UTC1 Température [°C] Vent [km/h] Hum. [%] Pres.4 [hPa] Visi. [Km] Nébu. [octa] Préc.5 [mm] Cond.
2m. Res. Ros. Dir.2 Vit. Moy. Raf.3
23:00 1.7 -5.4 1.5 O 44.4 46.3 59.3 99 850(-0.2/3h) -- -- -- --
22:00 1.8 -4.3 1.2 SO 31.5 42.6 55.6 96 850(0.3/3h) -- -- -- --
21:00 1.1 -6 0.7 SSO 40.7 42.6 55.6 97 850(0.1/3h) -- -- -- --
20:00 0.4 -6.8 0.1 SSO 38.9 38.9 53.7 98 850(0.3/3h) -- -- -- --
19:00 1.0 -5.7 0.5 S 35.2 35.2 48.2 96 850(0.4/3h) -- -- -- --
18:00 0.8 -5.4 0.5 SSO 29.6 46.3 64.8 98 850(0.6/3h) -- -- -- --
17:00 0.4 -6.5 -0.3 OSO 35.2 35.2 44.4 95 850(1.2/3h) -- -- -- --
16:00 -0.4 -7.3 -0.4 O 33.3 35.2 44.4 100 850(1.5/3h) -- -- -- --
15:00 -0.6 -7.6 -0.6 O 33.3 46.3 64.8 100 850(1.6/3h) -- -- -- --
14:00 -0.6 -7.6 -0.6 O 33.3 46.3 64.8 100 850(1.1/3h) -- -- -- --
13:00 -0.6 -7.9 -0.6 O 37.0 46.3 64.8 100 850(1.0/3h) -- -- -- --
12:00 -0.5 -8.6 -0.6 O 46.3 64.8 87.0 99 850(1.5/3h) -- -- -- --
11:00 -0.4 -8 -0.4 ONO 40.7 44.4 63.0 100 850(1.7/3h) -- -- -- --
10:00 -0.3 -8 -0.4 ONO 42.6 44.4 61.1 99 850(2.2/3h) -- -- -- --
09:00 -0.2 -7.7 -0.2 ONO 40.7 64.8 85.2 100 850(2.2/3h) -- -- -- --
08:00 0.0 -7.6 0.0 O 42.6 44.4 61.1 100 850(2.9/3h) -- -- -- --
07:00 0.3 -6.9 0.3 ONO 38.9 44.4 61.1 100 850(3.1/3h) -- -- -- --
06:00 0.4 -7.2 0.4 ONO 44.4 64.8 87.0 100 850(3.4/3h) -- -- -- --
05:00 1.1 -6.3 1.0 ONO 44.4 64.8 85.2 99 850(2.7/3h) -- -- -- --
04:00 1.3 -6.8 1.2 O 57.4 64.8 85.2 99 850(1.9/3h) -- -- -- --
03:00 0.6 -7.7 0.6 O 55.6 61.1 87.0 100 850(0.6/3h) -- -- -- --
02:00 0.6 -7.8 0.5 O 57.4 61.1 87.0 99 850(-0.5/3h) -- -- -- --
01:00 0.3 -7.7 0.1 O 50.0 61.1 87.0 99 850(-1.5/3h) -- -- -- --
00:00 0.3 -8.1 0.3 OSO 55.6 57.4 85.2 100 850(-1.9/3h) -- -- -- --

1 Coordinated Universal Time. Actuellement il est 11:00 locale et 09:00 UTC.

2 Le vent souffle depuis la direction indiquée vers la direction oposée.

3 Les rafales max. sont disponible 40 min après l'heure du relevé.

4 Pour les stations d'altitude (plus de 600m) le géopotentiel du niveau le plus proche de la pression obligatoire est indiqué.

5 Les stations disposant d'un diffuseur peuvent indiquer "trace". Cela signifie que des précipitations ont touchés le sol mais que la quantité est inférieure à 0.1 mm.

Copyright

Les données affichées sur cette page sont la propriété exclusive de Météo Suisse.

Récapitulatif de la journée
Température [°C] Vent [km/h] Ensoleillement4 [h] Precipitations totale5 [mm] Pression [Hpa]
Min1 Max.2 Moy.3 Max. Min Max.
-0.8 0.9 50.1 87.0 0 h 0 min 0 850.0 850.0

1 Température minimale relevée entre 18:00 UTC la veille et 18:00 UTC le jour donné.

2 Température maximale relevée entre 06:00 UTC le jour donné et 06:00 UTC le lendemain.

3 Vent moyen de la journée basé sur les relevés horaires.

4 Ensoleillement en heures relevé entre 06:00 UTC la veille et 06:00 UTC le jour donné.

5 Précipitations totales tombées entre 06:00 UTC la jour donné et 06:00 UTC le lendemain.

Graphiques horaires